Time;durP1;ratioP1;P1;durP2;ratioP2;P2;SDS_P1;SDS_P2;PMS_P1;PMS_P2;Temp;Humidity;BMP_temperature;BMP_pressure;BME280_temperature;BME280_humidity;BME280_pressure;Samples;Min_cycle;Max_cycle;Signal;HPM_P1;HPM_P2
2023/05/21 00:00:09;;;;;;;16.63;13.97;;;;;;;16.72;100.00;97755.88;5070455;28;20238;-83
2023/05/21 00:02:36;;;;;;;17.13;13.87;;;;;;;16.73;100.00;97753.06;5070789;28;20208;-83
2023/05/21 00:05:02;;;;;;;16.47;14.67;;;;;;;16.60;100.00;97752.59;5070791;28;20581;-83
2023/05/21 00:07:30;;;;;;;15.93;13.63;;;;;;;16.56;100.00;97755.72;5070844;28;20215;-83
2023/05/21 00:09:57;;;;;;;19.17;14.13;;;;;;;16.47;100.00;97752.13;5070475;28;20228;-83
2023/05/21 00:12:24;;;;;;;20.07;14.67;;;;;;;16.46;100.00;97760.28;5070686;28;20207;-83
2023/05/21 00:14:51;;;;;;;16.37;14.07;;;;;;;16.49;100.00;97755.50;5071689;28;20215;-83
2023/05/21 00:17:17;;;;;;;17.20;13.70;;;;;;;16.46;100.00;97754.97;5074670;28;20250;-83
2023/05/21 00:19:44;;;;;;;16.93;14.37;;;;;;;16.36;100.00;97749.66;5074077;28;20239;-83
2023/05/21 00:22:11;;;;;;;17.17;13.97;;;;;;;16.31;100.00;97751.94;5074395;28;20697;-83
2023/05/21 00:24:37;;;;;;;17.27;14.13;;;;;;;16.27;100.00;97745.22;5074336;28;20241;-83
2023/05/21 00:27:04;;;;;;;17.63;14.17;;;;;;;16.22;100.00;97747.50;5074085;28;20642;-83
2023/05/21 00:29:31;;;;;;;16.77;13.27;;;;;;;16.18;100.00;97735.47;5074266;28;20219;-82
2023/05/21 00:31:58;;;;;;;16.30;13.87;;;;;;;16.12;100.00;97735.22;5074076;28;20210;-83
2023/05/21 00:34:25;;;;;;;16.30;13.53;;;;;;;16.06;100.00;97730.47;5073928;28;20210;-83
2023/05/21 00:36:54;;;;;;;14.83;13.07;;;;;;;16.08;100.00;97738.34;5073855;28;20530;-83
2023/05/21 00:39:20;;;;;;;16.90;14.30;;;;;;;16.07;100.00;97732.16;5073337;28;20369;-83
2023/05/21 00:41:48;;;;;;;17.60;14.37;;;;;;;16.09;100.00;97727.53;5074023;28;20208;-83
2023/05/21 00:44:15;;;;;;;16.73;13.87;;;;;;;16.10;100.00;97729.19;5074067;28;20207;-83
2023/05/21 00:46:44;;;;;;;17.10;13.87;;;;;;;16.08;100.00;97729.34;5074242;28;20211;-83
2023/05/21 00:49:11;;;;;;;17.03;14.33;;;;;;;16.08;100.00;97733.00;5073671;28;20215;-82
2023/05/21 00:51:37;;;;;;;23.40;15.17;;;;;;;16.02;100.00;97715.75;5074288;28;20585;-83
2023/05/21 00:54:04;;;;;;;16.50;14.20;;;;;;;15.98;100.00;97717.06;5074119;28;20214;-83
2023/05/21 00:56:31;;;;;;;17.93;15.10;;;;;;;16.07;100.00;97718.00;5074289;28;20215;-83
2023/05/21 00:58:58;;;;;;;18.37;15.63;;;;;;;16.03;100.00;97720.13;5073753;28;20214;-83
2023/05/21 01:01:25;;;;;;;17.77;14.97;;;;;;;16.01;100.00;97719.41;5073738;28;20214;-83
2023/05/21 01:03:56;;;;;;;16.93;14.50;;;;;;;16.02;100.00;97717.59;5073942;28;20211;-83
2023/05/21 01:06:23;;;;;;;17.27;14.30;;;;;;;15.96;100.00;97713.72;5073985;28;20594;-83
2023/05/21 01:08:50;;;;;;;19.83;14.93;;;;;;;15.92;100.00;97716.81;5074118;28;20592;-83
2023/05/21 01:11:18;;;;;;;17.40;14.67;;;;;;;15.89;100.00;97717.94;5073238;28;20231;-83
2023/05/21 01:13:47;;;;;;;16.97;14.60;;;;;;;15.84;100.00;97720.25;5073849;28;20589;-83
2023/05/21 01:16:13;;;;;;;18.27;14.43;;;;;;;15.86;100.00;97717.41;5073429;28;20314;-83
2023/05/21 01:18:43;;;;;;;18.87;15.87;;;;;;;15.84;100.00;97716.72;5073416;28;20230;-83
2023/05/21 01:21:12;;;;;;;20.00;15.00;;;;;;;15.84;100.00;97709.59;5073225;28;20285;-83
2023/05/21 01:23:40;;;;;;;19.87;15.70;;;;;;;15.77;100.00;97712.97;5073438;28;20210;-83
2023/05/21 01:26:07;;;;;;;20.57;16.50;;;;;;;15.77;100.00;97719.13;5072799;28;20218;-83
2023/05/21 01:28:33;;;;;;;19.87;16.33;;;;;;;15.73;100.00;97714.25;5072964;28;20235;-83
2023/05/21 01:31:05;;;;;;;20.37;15.83;;;;;;;15.70;100.00;97711.91;5072714;28;20241;-83
2023/05/21 01:33:38;;;;;;;19.70;15.63;;;;;;;15.68;100.00;97705.84;5072964;28;20218;-83
2023/05/21 01:36:12;;;;;;;19.13;15.27;;;;;;;15.62;100.00;97703.78;5072930;28;20670;-83
2023/05/21 01:38:43;;;;;;;17.93;15.10;;;;;;;15.60;100.00;97700.44;5072903;28;20277;-81
2023/05/21 01:41:12;;;;;;;21.10;16.67;;;;;;;15.56;100.00;97709.69;5072531;28;20238;-83
2023/05/21 01:43:41;;;;;;;22.23;17.10;;;;;;;15.54;100.00;97709.88;5072606;28;20215;-83
2023/05/21 01:46:12;;;;;;;21.07;16.90;;;;;;;15.56;100.00;97704.38;5072989;28;20238;-83
2023/05/21 01:48:40;;;;;;;19.40;16.17;;;;;;;15.58;100.00;97713.06;5072823;28;20210;-83
2023/05/21 01:51:07;;;;;;;20.40;16.83;;;;;;;15.54;100.00;97703.69;5072659;28;20219;-83
2023/05/21 01:53:33;;;;;;;20.93;16.00;;;;;;;15.57;100.00;97703.41;5072902;28;20203;-83
2023/05/21 01:56:02;;;;;;;20.50;16.77;;;;;;;15.51;100.00;97701.34;5072625;28;20223;-83
2023/05/21 01:58:28;;;;;;;20.90;16.40;;;;;;;15.45;100.00;97697.41;5072334;28;20253;-82
2023/05/21 02:00:55;;;;;;;21.73;17.13;;;;;;;15.50;100.00;97694.31;5072506;28;20231;-83
2023/05/21 02:03:25;;;;;;;20.07;15.70;;;;;;;15.45;100.00;97691.28;5072889;28;20203;-83
2023/05/21 02:05:51;;;;;;;20.10;16.30;;;;;;;15.38;100.00;97695.47;5072649;28;20708;-83
2023/05/21 02:08:19;;;;;;;20.97;16.37;;;;;;;15.42;100.00;97691.53;5072949;28;20207;-83
2023/05/21 02:10:45;;;;;;;20.63;16.27;;;;;;;15.38;100.00;97701.66;5071980;28;20231;-83
2023/05/21 02:13:13;;;;;;;22.00;17.60;;;;;;;15.37;100.00;97693.81;5072447;28;20210;-83
2023/05/21 02:15:40;;;;;;;21.13;16.50;;;;;;;15.32;100.00;97701.34;5072626;28;20218;-83
2023/05/21 02:18:07;;;;;;;19.47;15.10;;;;;;;15.31;100.00;97689.88;5072366;28;20203;-83
2023/05/21 02:20:33;;;;;;;21.27;16.07;;;;;;;15.27;100.00;97698.31;5071927;28;20267;-83
2023/05/21 02:23:00;;;;;;;22.43;17.00;;;;;;;15.29;100.00;97691.84;5072438;28;20560;-83
2023/05/21 02:25:26;;;;;;;19.43;16.03;;;;;;;15.25;100.00;97694.94;5072182;28;20211;-83
2023/05/21 02:27:55;;;;;;;19.83;15.67;;;;;;;15.20;100.00;97698.03;5072069;28;20214;-83
2023/05/21 02:30:23;;;;;;;23.23;16.87;;;;;;;15.14;100.00;97697.75;5071719;28;20234;-83
2023/05/21 02:32:49;;;;;;;20.83;16.17;;;;;;;15.11;100.00;97690.06;5072336;28;20204;-83
2023/05/21 02:35:16;;;;;;;22.47;17.53;;;;;;;15.06;100.00;97689.66;5071977;28;20203;-83
2023/05/21 02:37:43;;;;;;;18.70;15.77;;;;;;;15.04;100.00;97686.31;5071714;28;20689;-83
2023/05/21 02:40:10;;;;;;;18.57;15.33;;;;;;;15.04;100.00;97681.81;5071637;28;20239;-83
2023/05/21 02:42:38;;;;;;;20.23;16.17;;;;;;;14.99;100.00;97683.25;5071798;28;20231;-83
2023/05/21 02:45:06;;;;;;;21.17;16.40;;;;;;;14.99;100.00;97683.25;5071746;28;20203;-83
2023/05/21 02:47:34;;;;;;;22.57;17.33;;;;;;;14.94;100.00;97686.34;5072173;28;20203;-83
2023/05/21 02:50:01;;;;;;;21.07;16.80;;;;;;;14.90;100.00;97684.13;5071427;28;20240;-83
2023/05/21 02:52:28;;;;;;;20.30;15.90;;;;;;;14.87;100.00;97689.72;5071696;28;20604;-82
2023/05/21 02:54:54;;;;;;;20.00;16.20;;;;;;;14.85;100.00;97691.69;5071738;28;20211;-84
2023/05/21 02:57:21;;;;;;;22.83;16.20;;;;;;;14.83;100.00;97693.63;5071782;28;20536;-84
2023/05/21 02:59:47;;;;;;;20.83;17.10;;;;;;;14.79;100.00;97693.09;5071266;28;20234;-83
2023/05/21 03:02:14;;;;;;;22.77;17.33;;;;;;;14.78;100.00;97701.22;5071593;28;20211;-84
2023/05/21 03:04:44;;;;;;;23.27;17.53;;;;;;;14.79;100.00;97692.25;5072011;28;20676;-84
2023/05/21 03:07:12;;;;;;;23.70;18.57;;;;;;;14.79;100.00;97686.94;5071607;28;20618;-84
2023/05/21 03:09:39;;;;;;;20.43;15.97;;;;;;;14.76;100.00;97681.88;5071169;28;20234;-83
2023/05/21 03:12:06;;;;;;;20.63;17.20;;;;;;;14.74;100.00;97687.34;5071601;28;20237;-83
2023/05/21 03:14:32;;;;;;;20.73;17.00;;;;;;;14.72;100.00;97683.19;5071756;28;20207;-84
2023/05/21 03:16:59;;;;;;;22.13;17.43;;;;;;;14.68;100.00;97676.44;5071899;28;20293;-83
2023/05/21 03:21:56;;;;;;;20.03;16.10;;;;;;;14.54;100.00;97676.91;5029490;28;20278;-76
2023/05/21 03:24:22;;;;;;;24.57;18.03;;;;;;;14.53;100.00;97672.53;5031306;28;20209;-75
2023/05/21 03:26:49;;;;;;;23.70;17.60;;;;;;;14.56;100.00;97665.13;5031275;28;20216;-76
2023/05/21 03:29:16;;;;;;;22.47;17.63;;;;;;;14.49;100.00;97674.63;5030994;28;20629;-76
2023/05/21 03:31:42;;;;;;;22.63;17.03;;;;;;;14.44;100.00;97665.41;5031017;28;20713;-76
2023/05/21 03:34:09;;;;;;;20.33;16.43;;;;;;;14.44;100.00;97678.72;5031074;28;20212;-76
2023/05/21 03:36:35;;;;;;;21.93;16.87;;;;;;;14.38;100.00;97679.28;5031025;28;20219;-76
2023/05/21 03:39:04;;;;;;;23.53;17.93;;;;;;;14.40;100.00;97670.19;5030820;28;20639;-76
2023/05/21 03:41:30;;;;;;;23.50;17.83;;;;;;;14.39;100.00;97665.84;5030873;28;20289;-76
2023/05/21 03:43:57;;;;;;;23.10;18.43;;;;;;;14.43;100.00;97674.38;5030933;28;20215;-76
2023/05/21 03:46:23;;;;;;;21.73;17.37;;;;;;;14.36;100.00;97668.78;5030883;28;20683;-76
2023/05/21 03:48:50;;;;;;;23.93;17.87;;;;;;;14.34;100.00;97664.56;5030793;28;20216;-76
2023/05/21 03:51:16;;;;;;;22.57;17.47;;;;;;;14.29;100.00;97665.00;5033849;28;20232;-76
2023/05/21 03:53:43;;;;;;;25.47;18.03;;;;;;;14.28;100.00;97668.63;5034956;28;20212;-76
2023/05/21 03:56:11;;;;;;;23.27;17.37;;;;;;;14.29;100.00;97672.16;5034879;28;20632;-76
2023/05/21 03:58:37;;;;;;;24.37;18.33;;;;;;;14.28;100.00;97676.63;5034732;28;20215;-76
2023/05/21 04:01:04;;;;;;;25.33;19.00;;;;;;;14.26;100.00;97672.41;5034156;28;20239;-76
2023/05/21 04:03:31;;;;;;;22.27;18.47;;;;;;;14.28;100.00;97676.63;5034532;28;20762;-76
2023/05/21 04:05:58;;;;;;;25.03;18.57;;;;;;;14.27;100.00;97682.91;5034851;28;20650;-76
2023/05/21 04:08:25;;;;;;;23.77;17.90;;;;;;;14.27;100.00;97679.41;5034646;28;20214;-76
2023/05/21 04:10:51;;;;;;;21.73;17.20;;;;;;;14.29;100.00;97680.13;5034237;28;20223;-76
2023/05/21 04:13:19;;;;;;;21.67;16.87;;;;;;;14.30;100.00;97679.97;5034461;28;20219;-77
2023/05/21 04:15:46;;;;;;;24.03;18.13;;;;;;;14.31;100.00;97689.63;5034290;28;20298;-76
2023/05/21 04:18:14;;;;;;;21.30;16.63;;;;;;;14.30;100.00;97693.25;5034245;28;20674;-76
2023/05/21 04:20:40;;;;;;;23.17;17.73;;;;;;;14.29;100.00;97691.56;5033760;28;20911;-76
2023/05/21 04:23:07;;;;;;;22.80;17.87;;;;;;;14.33;100.00;97694.78;5034375;28;20212;-76
2023/05/21 04:25:33;;;;;;;22.73;17.70;;;;;;;14.33;100.00;97705.44;5034312;28;20302;-76
2023/05/21 04:28:00;;;;;;;22.30;17.43;;;;;;;14.31;100.00;97708.22;5034295;28;20544;-76
2023/05/21 04:30:28;;;;;;;23.83;18.47;;;;;;;14.30;100.00;97711.88;5033749;28;20228;-76
2023/05/21 04:32:54;;;;;;;23.63;18.73;;;;;;;14.36;100.00;97705.16;5034306;28;20212;-76
2023/05/21 04:35:22;;;;;;;24.30;18.40;;;;;;;14.37;100.00;97712.97;5033986;28;20252;-76
2023/05/21 04:37:48;;;;;;;24.23;17.67;;;;;;;14.41;100.00;97708.22;5033907;28;20749;-76
2023/05/21 04:40:16;;;;;;;22.50;18.10;;;;;;;14.40;100.00;97706.53;5033974;28;20240;-76
2023/05/21 04:42:44;;;;;;;23.37;17.90;;;;;;;14.41;100.00;97713.53;5033886;28;20212;-76
2023/05/21 04:45:11;;;;;;;23.17;17.53;;;;;;;14.43;100.00;97722.22;5033729;28;20780;-76
2023/05/21 04:47:39;;;;;;;22.97;17.50;;;;;;;14.46;100.00;97717.47;5034028;28;20216;-76
2023/05/21 04:50:06;;;;;;;21.87;17.50;;;;;;;14.50;100.00;97708.25;5033669;28;20302;-76
2023/05/21 04:52:33;;;;;;;22.53;17.53;;;;;;;14.49;100.00;97708.38;5033706;28;20713;-76
2023/05/21 04:55:00;;;;;;;22.83;18.00;;;;;;;14.54;100.00;97719.44;5033654;28;20231;-76
2023/05/21 04:57:27;;;;;;;21.33;16.73;;;;;;;14.61;100.00;97715.25;5033462;28;20223;-76
2023/05/21 04:59:53;;;;;;;22.63;17.60;;;;;;;14.60;100.00;97718.88;5033303;28;20322;-76
2023/05/21 05:02:20;;;;;;;23.17;17.47;;;;;;;14.65;100.00;97716.63;5032506;28;20602;-76
2023/05/21 05:04:47;;;;;;;22.80;17.37;;;;;;;14.69;100.00;97718.03;5033611;28;20215;-76
2023/05/21 05:07:14;;;;;;;20.63;16.37;;;;;;;14.72;100.00;97725.75;5033571;28;20213;-76
2023/05/21 05:09:40;;;;;;;23.30;18.13;;;;;;;14.72;100.00;97723.06;5033519;28;20246;-76
2023/05/21 05:12:07;;;;;;;22.27;17.23;;;;;;;14.75;100.00;97717.47;5033254;28;20205;-76
2023/05/21 05:14:34;;;;;;;21.43;17.27;;;;;;;14.78;100.00;97720.66;5033204;28;20219;-76
2023/05/21 05:17:00;;;;;;;20.83;17.70;;;;;;;14.83;100.00;97715.78;5033149;28;20219;-76
2023/05/21 05:19:27;;;;;;;22.13;17.37;;;;;;;14.90;100.00;97716.06;5032941;28;20212;-76
2023/05/21 05:21:55;;;;;;;20.77;17.07;;;;;;;14.92;100.00;97720.22;5032897;28;20248;-76
2023/05/21 05:24:21;;;;;;;19.93;16.30;;;;;;;14.94;100.00;97722.75;5033091;28;20220;-76
2023/05/21 05:26:47;;;;;;;21.07;17.07;;;;;;;14.98;100.00;97711.66;5032905;28;20217;-76
2023/05/21 05:29:14;;;;;;;21.27;17.37;;;;;;;14.97;100.00;97717.16;5033185;28;20212;-76
2023/05/21 05:31:40;;;;;;;23.17;17.83;;;;;;;15.02;100.00;97710.41;5032893;28;20715;-76
2023/05/21 05:34:07;;;;;;;22.30;17.50;;;;;;;15.06;100.00;97713.63;5033039;28;20215;-76
2023/05/21 05:36:34;;;;;;;20.30;16.40;;;;;;;15.08;100.00;97711.66;5032889;28;20209;-76
2023/05/21 05:39:02;;;;;;;21.70;16.57;;;;;;;15.17;100.00;97721.44;5032782;28;20255;-75
2023/05/21 05:41:28;;;;;;;23.13;17.17;;;;;;;15.27;100.00;97719.59;5032373;28;20710;-76
2023/05/21 05:43:54;;;;;;;20.70;16.47;;;;;;;15.25;100.00;97716.22;5032894;28;20280;-76
2023/05/21 05:46:21;;;;;;;20.07;16.67;;;;;;;15.30;100.00;97720.16;5032941;28;20212;-76
2023/05/21 05:48:47;;;;;;;19.70;15.40;;;;;;;15.32;100.00;97718.22;5032706;28;20219;-76
2023/05/21 05:51:15;;;;;;;19.67;16.17;;;;;;;15.37;100.00;97723.09;5032314;28;20592;-76
2023/05/21 05:53:42;;;;;;;22.17;16.90;;;;;;;15.41;100.00;97721.81;5032386;28;20217;-76
2023/05/21 05:56:10;;;;;;;21.10;16.77;;;;;;;15.48;100.00;97730.91;5032766;28;20215;-76
2023/05/21 05:58:36;;;;;;;19.63;16.27;;;;;;;15.60;100.00;97719.94;5032419;28;20691;-77
2023/05/21 06:01:03;;;;;;;23.57;17.93;;;;;;;15.76;100.00;97721.97;5031996;28;20233;-77
2023/05/21 06:03:29;;;;;;;21.50;17.33;;;;;;;15.95;100.00;97717.34;5032370;28;20213;-76
2023/05/21 06:05:56;;;;;;;20.00;16.93;;;;;;;16.13;100.00;97715.56;5032102;28;20683;-76
2023/05/21 06:08:23;;;;;;;21.40;16.63;;;;;;;16.41;100.00;97719.91;5032213;28;20209;-76
2023/05/21 06:10:50;;;;;;;19.57;16.63;;;;;;;16.64;100.00;97715.78;5032010;28;20645;-76
2023/05/21 06:13:17;;;;;;;21.03;17.13;;;;;;;16.85;100.00;97714.47;5032017;28;20213;-76
2023/05/21 06:15:44;;;;;;;19.13;15.37;;;;;;;16.99;100.00;97716.56;5032038;28;20212;-76
2023/05/21 06:18:11;;;;;;;18.53;16.13;;;;;;;17.12;100.00;97710.84;5032105;28;20306;-76
2023/05/21 06:20:37;;;;;;;18.23;16.07;;;;;;;17.20;100.00;97710.88;5031425;28;20748;-76
2023/05/21 06:23:05;;;;;;;20.67;15.63;;;;;;;17.15;100.00;97715.84;5032163;28;20208;-76
2023/05/21 06:25:31;;;;;;;17.93;15.67;;;;;;;17.22;100.00;97716.88;5032220;28;20209;-76
2023/05/21 06:27:58;;;;;;;18.73;15.40;;;;;;;17.16;100.00;97718.38;5032052;28;20212;-76
2023/05/21 06:30:26;;;;;;;20.83;16.53;;;;;;;17.13;100.00;97715.16;5031574;28;20236;-76
2023/05/21 06:32:52;;;;;;;18.13;16.07;;;;;;;17.10;100.00;97710.13;5031720;28;20610;-76
2023/05/21 06:35:18;;;;;;;20.40;16.47;;;;;;;17.16;100.00;97722.84;5031664;28;20209;-76
2023/05/21 06:37:45;;;;;;;18.83;16.07;;;;;;;17.17;100.00;97719.19;5032307;28;20220;-76
2023/05/21 06:40:12;;;;;;;18.40;15.57;;;;;;;17.28;99.87;97716.25;5031298;28;20228;-76
2023/05/21 06:42:38;;;;;;;18.83;15.87;;;;;;;17.33;99.55;97719.31;5031610;28;20233;-76
2023/05/21 06:45:06;;;;;;;20.00;17.40;;;;;;;17.55;98.23;97714.28;5031657;28;20710;-76
2023/05/21 06:47:34;;;;;;;18.27;15.40;;;;;;;17.67;97.44;97713.00;5031554;28;20213;-76
2023/05/21 06:50:00;;;;;;;17.73;15.03;;;;;;;17.95;95.86;97703.78;5031088;28;20618;-76
2023/05/21 06:52:27;;;;;;;19.33;16.47;;;;;;;18.08;93.73;97706.81;5031697;28;20205;-76
2023/05/21 06:54:53;;;;;;;18.27;14.83;;;;;;;18.17;91.85;97711.19;5031605;28;20216;-76
2023/05/21 06:57:20;;;;;;;17.63;14.53;;;;;;;18.16;90.55;97709.50;5031409;28;20208;-76
2023/05/21 06:59:46;;;;;;;16.00;14.17;;;;;;;18.12;90.27;97716.22;5031061;28;20234;-77
2023/05/21 07:02:13;;;;;;;18.50;14.80;;;;;;;18.10;91.55;97710.16;5031167;28;20224;-76
2023/05/21 07:04:40;;;;;;;15.43;13.33;;;;;;;17.96;91.64;97710.78;5031514;28;20547;-77
2023/05/21 07:07:07;;;;;;;19.80;15.77;;;;;;;17.93;91.75;97716.44;5031374;28;20211;-78
2023/05/21 07:09:34;;;;;;;18.47;14.73;;;;;;;17.90;92.76;97718.63;5031102;28;20216;-76
2023/05/21 07:12:00;;;;;;;18.77;14.47;;;;;;;17.92;92.88;97725.47;5031289;28;20710;-77
2023/05/21 07:14:27;;;;;;;16.20;14.00;;;;;;;17.99;93.24;97726.50;5031215;28;20282;-77
2023/05/21 07:16:53;;;;;;;17.30;14.80;;;;;;;18.06;93.19;97719.53;5031083;28;20223;-79
2023/05/21 07:19:20;;;;;;;15.67;13.27;;;;;;;18.21;89.42;97707.19;5030667;28;20212;-77
2023/05/21 07:21:49;;;;;;;14.03;12.47;;;;;;;18.23;89.10;97710.53;5030955;28;20251;-80
2023/05/21 07:24:15;;;;;;;15.47;12.83;;;;;;;18.23;88.96;97721.22;5030791;28;20382;-85
2023/05/21 07:26:42;;;;;;;14.27;12.77;;;;;;;18.31;88.65;97718.63;5030959;28;20216;-84
2023/05/21 07:29:08;;;;;;;15.97;12.80;;;;;;;18.30;87.76;97722.25;5030740;28;20235;-85
2023/05/21 07:31:35;;;;;;;13.60;11.83;;;;;;;18.32;87.44;97725.66;5031064;28;20225;-81
2023/05/21 07:34:01;;;;;;;13.93;12.40;;;;;;;18.41;87.63;97719.31;5031442;28;20220;-81
2023/05/21 07:36:28;;;;;;;14.87;13.27;;;;;;;18.51;88.46;97714.66;5031302;28;20221;-81
2023/05/21 07:38:56;;;;;;;13.83;11.83;;;;;;;18.64;88.79;97725.69;5030984;28;20216;-81
2023/05/21 07:41:23;;;;;;;15.07;13.47;;;;;;;18.80;87.95;97715.00;5030464;28;20243;-81
2023/05/21 07:43:49;;;;;;;15.30;13.07;;;;;;;18.93;87.52;97714.50;5030983;28;20209;-81
2023/05/21 07:46:16;;;;;;;14.43;12.93;;;;;;;19.04;86.65;97716.84;5030839;28;20215;-80
2023/05/21 07:48:42;;;;;;;14.13;12.20;;;;;;;19.17;86.79;97719.84;5030837;28;20209;-79
2023/05/21 07:51:09;;;;;;;13.63;12.27;;;;;;;19.36;85.99;97706.97;5030437;28;20367;-79
2023/05/21 07:53:36;;;;;;;14.33;12.53;;;;;;;19.45;83.49;97694.38;5030932;28;20213;-78
2023/05/21 07:56:04;;;;;;;15.10;12.03;;;;;;;19.48;83.48;97694.88;5030649;28;20205;-79
2023/05/21 07:58:31;;;;;;;14.40;11.53;;;;;;;19.68;83.29;97700.69;5030750;28;20208;-78
2023/05/21 08:00:57;;;;;;;12.77;11.47;;;;;;;19.82;78.33;97682.00;5030508;28;20265;-79
2023/05/21 08:03:26;;;;;;;15.03;11.27;;;;;;;19.88;77.18;97686.66;5030801;28;20745;-76
2023/05/21 08:05:53;;;;;;;15.77;11.90;;;;;;;20.04;78.15;97693.81;5030747;28;20205;-75
2023/05/21 08:08:20;;;;;;;13.73;10.90;;;;;;;20.18;79.42;97693.94;5030824;28;20697;-76
2023/05/21 08:10:47;;;;;;;12.50;11.10;;;;;;;20.29;78.46;97701.59;5030183;28;20287;-76
2023/05/21 08:13:16;;;;;;;11.73;10.53;;;;;;;20.40;79.11;97703.88;5030515;28;20205;-75
2023/05/21 08:15:42;;;;;;;13.63;11.73;;;;;;;20.39;77.37;97688.78;5030845;28;20312;-75
2023/05/21 08:18:09;;;;;;;14.10;12.00;;;;;;;20.43;77.76;97692.75;5030597;28;20216;-75
2023/05/21 08:20:35;;;;;;;12.30;11.00;;;;;;;20.51;77.74;97691.88;5030095;28;20237;-75
2023/05/21 08:23:02;;;;;;;13.13;11.73;;;;;;;20.64;76.12;97682.22;5030376;28;20716;-75
2023/05/21 08:25:29;;;;;;;12.50;11.10;;;;;;;20.72;75.70;97692.09;5030467;28;20205;-74
2023/05/21 08:27:56;;;;;;;13.70;12.30;;;;;;;20.82;76.31;97696.19;5030198;28;20589;-76
2023/05/21 08:30:24;;;;;;;12.27;10.97;;;;;;;20.96;76.05;97694.63;5030437;28;20236;-74
2023/05/21 08:32:50;;;;;;;13.23;11.23;;;;;;;21.11;75.16;97688.25;5030762;28;20223;-76
2023/05/21 08:35:17;;;;;;;13.07;11.50;;;;;;;21.28;74.13;97692.44;5030386;28;20299;-78
2023/05/21 08:37:43;;;;;;;12.27;10.97;;;;;;;21.35;71.29;97679.09;5033813;28;20212;-79
2023/05/21 08:40:12;;;;;;;13.67;12.10;;;;;;;21.48;69.79;97669.41;5033728;28;20225;-77
2023/05/21 08:42:44;;;;;;;12.70;11.40;;;;;;;21.36;68.70;97670.03;5033788;28;20228;-75
2023/05/21 08:45:12;;;;;;;11.87;10.60;;;;;;;21.34;69.06;97672.88;5034058;28;20290;-75
2023/05/21 08:47:42;;;;;;;12.17;10.90;;;;;;;21.38;74.16;97695.69;5033753;28;20220;-78
2023/05/21 08:50:10;;;;;;;11.20;10.00;;;;;;;21.43;71.01;97682.56;5033447;28;20232;-77
2023/05/21 08:52:37;;;;;;;11.50;10.33;;;;;;;21.45;68.91;97674.31;5033679;28;20721;-75
2023/05/21 08:55:04;;;;;;;11.63;10.53;;;;;;;21.41;66.55;97660.41;5033508;28;20209;-76
2023/05/21 08:57:32;;;;;;;11.53;10.40;;;;;;;21.36;70.13;97673.56;5033652;28;20220;-75
2023/05/21 08:59:58;;;;;;;12.17;10.83;;;;;;;21.47;70.95;97686.53;5033148;28;20236;-76
2023/05/21 09:02:25;;;;;;;12.17;10.87;;;;;;;21.51;69.04;97684.31;5033558;28;20229;-76
2023/05/21 09:04:56;;;;;;;10.90;9.53;;;;;;;21.49;69.42;97676.44;5033510;28;20291;-77
2023/05/21 09:07:26;;;;;;;11.10;9.70;;;;;;;21.61;64.42;97650.75;5033335;28;20204;-75
2023/05/21 09:09:55;;;;;;;10.00;8.97;;;;;;;21.58;65.07;97653.78;5033455;28;20224;-75
2023/05/21 09:12:23;;;;;;;11.00;9.53;;;;;;;21.60;67.31;97677.81;5033559;28;20262;-75
2023/05/21 09:14:50;;;;;;;10.63;9.50;;;;;;;21.63;66.59;97672.91;5033517;28;20209;-76
2023/05/21 09:17:16;;;;;;;11.40;10.20;;;;;;;21.67;64.16;97657.25;5033520;28;20208;-75
2023/05/21 09:22:23;;;;;;;11.20;10.07;;;;;;;21.74;70.15;97691.31;5070384;28;20223;-76
2023/05/21 09:24:51;;;;;;;11.93;10.10;;;;;;;21.86;69.36;97694.34;5073243;28;20203;-76
2023/05/21 09:27:18;;;;;;;10.43;9.40;;;;;;;21.84;69.84;97696.41;5073504;28;20207;-76
2023/05/21 09:29:45;;;;;;;10.70;9.70;;;;;;;21.87;70.47;97701.41;5073065;28;20298;-75
2023/05/21 09:32:11;;;;;;;11.37;9.87;;;;;;;21.83;67.94;97682.09;5073300;28;20203;-76
2023/05/21 09:34:38;;;;;;;10.17;9.10;;;;;;;21.87;64.75;97669.94;5073303;28;20853;-77
2023/05/21 09:37:06;;;;;;;10.40;9.13;;;;;;;21.87;66.82;97678.03;5073350;28;20208;-77
2023/05/21 09:39:34;;;;;;;12.07;9.80;;;;;;;22.01;68.89;97698.69;5072793;28;20261;-76
2023/05/21 09:42:01;;;;;;;10.87;9.60;;;;;;;22.11;65.99;97672.34;5072833;28;20239;-77
2023/05/21 09:44:27;;;;;;;10.50;9.40;;;;;;;22.20;66.87;97684.66;5072871;28;20212;-76
2023/05/21 09:46:57;;;;;;;9.97;9.03;;;;;;;22.34;66.50;97689.19;5072953;28;20207;-76
2023/05/21 09:49:25;;;;;;;10.03;9.03;;;;;;;22.36;64.71;97670.97;5072209;28;20211;-76
2023/05/21 09:51:55;;;;;;;10.90;9.10;;;;;;;22.49;64.43;97676.53;5072878;28;20227;-76
2023/05/21 09:54:22;;;;;;;11.27;8.93;;;;;;;22.58;63.23;97663.78;5072610;28;20219;-76
2023/05/21 09:56:51;;;;;;;10.17;9.13;;;;;;;22.69;62.09;97653.34;5072741;28;20215;-76
2023/05/21 09:59:18;;;;;;;9.73;8.73;;;;;;;22.70;61.73;97656.84;5072301;28;20208;-76
2023/05/21 10:01:44;;;;;;;10.07;9.00;;;;;;;22.79;63.34;97661.91;5072454;28;20600;-76
2023/05/21 10:04:12;;;;;;;9.43;8.53;;;;;;;22.81;60.07;97637.47;5072881;28;20238;-76
2023/05/21 10:06:42;;;;;;;9.77;8.77;;;;;;;22.88;60.90;97647.28;5072639;28;20211;-76
2023/05/21 10:09:11;;;;;;;10.23;8.93;;;;;;;23.08;63.06;97669.84;5072209;28;20207;-77
2023/05/21 10:11:39;;;;;;;9.30;8.40;;;;;;;23.18;57.40;97629.09;5072154;28;20227;-76
2023/05/21 10:14:11;;;;;;;10.20;9.13;;;;;;;23.08;57.46;97623.16;5072106;28;20298;-76
2023/05/21 10:16:37;;;;;;;10.00;9.00;;;;;;;23.01;59.68;97642.00;5072076;28;20211;-76
2023/05/21 10:19:09;;;;;;;10.67;8.40;;;;;;;23.04;56.31;97619.22;5072350;28;20221;-76
2023/05/21 10:21:36;;;;;;;9.90;8.87;;;;;;;22.99;56.69;97629.75;5072083;28;20238;-76
2023/05/21 10:24:03;;;;;;;9.30;8.40;;;;;;;23.06;59.00;97644.94;5072132;28;20211;-76
2023/05/21 10:26:31;;;;;;;9.33;8.17;;;;;;;23.18;59.55;97646.13;5072270;28;20272;-76
2023/05/21 10:28:58;;;;;;;9.47;8.57;;;;;;;23.45;63.62;97669.53;5072112;28;20211;-76
2023/05/21 10:31:27;;;;;;;9.37;8.40;;;;;;;23.50;56.46;97618.53;5071824;28;20227;-76
2023/05/21 10:33:54;;;;;;;9.33;8.30;;;;;;;23.53;56.33;97607.31;5072013;28;20211;-76
2023/05/21 10:36:21;;;;;;;9.50;7.97;;;;;;;23.72;55.66;97611.97;5071920;28;20226;-76
2023/05/21 10:38:48;;;;;;;8.60;7.80;;;;;;;23.85;57.82;97635.50;5071895;28;20211;-76
2023/05/21 10:41:17;;;;;;;9.27;8.37;;;;;;;24.07;58.14;97640.63;5071280;28;20238;-76
2023/05/21 10:44:05;;;;;;;8.33;7.40;;;;;;;24.11;55.10;97609.50;5071874;28;20661;-77
2023/05/21 10:46:51;;;;;;;8.33;7.40;;;;;;;24.26;58.33;97639.84;5071662;28;20217;-76
2023/05/21 10:49:30;;;;;;;8.57;7.77;;;;;;;;;;5071153;28;20207;-75
2023/05/21 10:52:07;;;;;;;7.93;7.13;;;;;;;24.26;53.04;97585.03;5071616;28;20375;-76
2023/05/21 10:54:56;;;;;;;9.20;8.00;;;;;;;24.17;51.51;97570.03;5071045;28;20210;-76
2023/05/21 10:58:02;;;;;;;8.77;7.87;;;;;;;24.03;56.60;97625.84;5071509;28;20215;-75
2023/05/21 11:00:30;;;;;;;8.63;7.73;;;;;;;24.11;56.71;97614.88;5070254;28;20281;-74
2023/05/21 11:02:59;;;;;;;8.63;7.73;;;;;;;24.17;54.02;97589.78;5071571;28;20227;-77
2023/05/21 11:05:41;;;;;;;8.00;7.20;;;;;;;24.31;53.82;97587.94;5071569;28;20208;-75
2023/05/21 11:08:25;;;;;;;8.43;7.37;;;;;;;24.45;55.76;97606.66;5071418;28;20614;-76
2023/05/21 11:10:53;;;;;;;8.30;7.50;;;;;;;24.56;54.71;97606.03;5071123;28;20292;-75
2023/05/21 11:13:20;;;;;;;10.70;7.63;;;;;;;24.51;52.95;97584.22;5071298;28;20249;-76
2023/05/21 11:16:06;;;;;;;8.53;7.73;;;;;;;24.62;50.45;97559.31;5071071;28;20212;-74
2023/05/21 11:19:02;;;;;;;8.52;7.63;;;;;;;24.52;53.49;97594.00;5071102;28;20843;-76
2023/05/21 11:21:30;;;;;;;8.83;7.73;;;;;;;24.50;55.37;97611.47;5070872;28;20623;-76